createdAt,value
2022-09-11T00:01:33.124Z,22.58
2022-09-11T00:04:03.424Z,24.40
2022-09-11T00:06:34.105Z,26.02
2022-09-11T00:09:04.741Z,25.17
2022-09-11T00:11:40.444Z,24.88
2022-09-11T00:14:10.246Z,25.70
2022-09-11T00:16:41.654Z,28.08
2022-09-11T00:19:14.256Z,27.45
2022-09-11T00:21:43.957Z,28.70
2022-09-11T00:24:11.653Z,26.27
2022-09-11T00:26:41.079Z,25.83
2022-09-11T00:29:08.758Z,27.23
2022-09-11T00:31:36.146Z,27.25
2022-09-11T00:34:03.075Z,27.50
2022-09-11T00:36:31.576Z,25.92
2022-09-11T00:38:59.826Z,26.38
2022-09-11T00:41:36.362Z,25.83
2022-09-11T00:44:07.525Z,25.40
2022-09-11T00:46:39.715Z,25.67
2022-09-11T00:49:40.119Z,25.27
2022-09-11T00:52:20.270Z,24.38
2022-09-11T00:55:14.573Z,26.85
2022-09-11T00:57:54.026Z,26.73
2022-09-11T01:00:22.186Z,25.33
2022-09-11T01:02:51.613Z,25.08
2022-09-11T01:05:22.337Z,24.27
2022-09-11T01:07:54.233Z,25.08
2022-09-11T01:11:05.274Z,21.88
2022-09-11T01:13:47.578Z,27.38
2022-09-11T01:16:29.997Z,24.58
2022-09-11T01:19:53.365Z,23.95
2022-09-11T01:23:07.850Z,23.73
2022-09-11T01:26:38.867Z,24.58
2022-09-11T01:30:05.489Z,23.67
2022-09-11T01:32:59.291Z,27.15
2022-09-11T01:35:54.179Z,26.80
2022-09-11T01:38:51.594Z,25.58
2022-09-11T01:41:27.719Z,26.35
2022-09-11T01:44:03.693Z,26.77
2022-09-11T01:46:36.667Z,23.00
2022-09-11T01:49:18.541Z,24.35
2022-09-11T01:51:48.153Z,24.65
2022-09-11T01:54:18.432Z,22.15
2022-09-11T01:56:55.808Z,22.65
2022-09-11T01:59:28.149Z,22.23
2022-09-11T02:02:10.047Z,23.38
2022-09-11T02:04:44.581Z,21.92
2022-09-11T02:07:28.563Z,21.95
2022-09-11T02:10:01.447Z,20.08
2022-09-11T02:12:39.759Z,21.42
2022-09-11T02:15:08.192Z,21.45
2022-09-11T02:17:52.333Z,19.20
2022-09-11T02:20:20.941Z,21.13
2022-09-11T02:22:49.054Z,23.67
2022-09-11T02:25:16.397Z,21.98
2022-09-11T02:27:43.274Z,23.35
2022-09-11T02:30:11.127Z,25.30
2022-09-11T02:32:41.380Z,22.27
2022-09-11T02:35:09.203Z,22.10
2022-09-11T02:37:54.026Z,20.35
2022-09-11T02:40:53.078Z,20.88
2022-09-11T02:43:50.205Z,20.55
2022-09-11T02:47:00.486Z,18.48
2022-09-11T02:49:33.380Z,17.02
2022-09-11T02:52:42.779Z,17.65
2022-09-11T02:55:49.892Z,19.67
2022-09-11T02:58:23.605Z,20.38
2022-09-11T03:00:50.562Z,19.90
2022-09-11T03:03:19.132Z,19.30
2022-09-11T03:05:46.015Z,19.95
2022-09-11T03:08:14.661Z,20.15
2022-09-11T03:10:41.740Z,17.92
2022-09-11T03:13:08.553Z,20.45
2022-09-11T03:15:35.491Z,18.58
2022-09-11T03:18:02.860Z,18.73
2022-09-11T03:20:29.819Z,19.27
2022-09-11T03:22:56.729Z,18.65
2022-09-11T03:25:28.239Z,16.50
2022-09-11T03:30:22.237Z,16.23
2022-09-11T03:32:49.166Z,15.35
2022-09-11T03:35:16.356Z,16.92
2022-09-11T03:37:43.222Z,17.02
2022-09-11T03:40:10.346Z,15.98
2022-09-11T03:42:37.322Z,14.50
2022-09-11T03:45:04.659Z,14.20
2022-09-11T03:47:31.822Z,14.98
2022-09-11T03:49:58.626Z,14.27
2022-09-11T03:52:25.465Z,13.77
2022-09-11T03:54:52.358Z,14.68
2022-09-11T03:57:19.201Z,14.35
2022-09-11T03:59:45.974Z,13.18
2022-09-11T04:02:12.847Z,12.52
2022-09-11T04:04:39.798Z,14.57
2022-09-11T04:07:06.708Z,14.13
2022-09-11T04:09:33.449Z,13.27
2022-09-11T04:12:00.463Z,15.27
2022-09-11T04:14:28.123Z,13.90
2022-09-11T04:16:54.929Z,12.63
2022-09-11T04:19:23.593Z,13.30
2022-09-11T04:21:50.833Z,13.90
2022-09-11T04:24:17.955Z,13.52
2022-09-11T04:26:45.281Z,12.98
2022-09-11T04:29:12.149Z,12.93
2022-09-11T04:31:41.311Z,11.93
2022-09-11T04:34:09.743Z,15.48
2022-09-11T04:36:36.786Z,13.13
2022-09-11T04:39:04.235Z,13.30
2022-09-11T04:41:30.994Z,13.95
2022-09-11T04:44:04.914Z,14.38
2022-09-11T04:46:33.334Z,13.77
2022-09-11T04:49:00.300Z,13.85
2022-09-11T04:51:33.358Z,13.77
2022-09-11T04:54:01.255Z,13.55
2022-09-11T04:56:34.231Z,14.20
2022-09-11T04:59:13.415Z,12.55
2022-09-11T05:01:40.380Z,12.25
2022-09-11T05:04:08.625Z,13.30
2022-09-11T05:06:37.950Z,13.13
2022-09-11T05:09:07.894Z,11.93
2022-09-11T05:11:35.073Z,12.25
2022-09-11T05:14:02.426Z,12.25
2022-09-11T05:16:30.982Z,11.25
2022-09-11T05:18:59.422Z,11.80
2022-09-11T05:21:27.866Z,11.77
2022-09-11T05:23:57.936Z,10.98
2022-09-11T05:26:30.176Z,10.00
2022-09-11T05:29:00.587Z,9.45
2022-09-11T05:31:29.013Z,8.65
2022-09-11T05:33:56.731Z,9.77
2022-09-11T05:36:24.381Z,9.07
2022-09-11T05:38:52.220Z,11.75
2022-09-11T05:41:19.996Z,10.40
2022-09-11T05:43:46.951Z,9.73
2022-09-11T05:46:16.695Z,10.63
2022-09-11T05:48:43.766Z,9.73
2022-09-11T05:51:13.493Z,10.60
2022-09-11T05:53:41.158Z,9.60
2022-09-11T05:56:16.018Z,11.60
2022-09-11T05:58:44.402Z,11.38
2022-09-11T06:01:13.992Z,11.10
2022-09-11T06:03:41.462Z,10.25
2022-09-11T06:06:11.492Z,10.65
2022-09-11T06:08:44.239Z,9.95
2022-09-11T06:11:14.048Z,9.50
2022-09-11T06:13:43.356Z,10.25
2022-09-11T06:16:21.919Z,9.48
2022-09-11T06:18:50.658Z,9.23
2022-09-11T06:21:20.623Z,9.82
2022-09-11T06:23:52.322Z,9.98
2022-09-11T06:28:49.320Z,9.15
2022-09-11T06:31:22.182Z,9.55
2022-09-11T06:33:50.151Z,7.82
2022-09-11T06:36:29.966Z,8.15
2022-09-11T06:38:58.036Z,7.13
2022-09-11T06:41:26.957Z,8.30
2022-09-11T06:43:54.240Z,8.70
2022-09-11T06:46:24.635Z,8.70
2022-09-11T06:48:52.198Z,9.07
2022-09-11T06:51:21.686Z,8.02
2022-09-11T06:53:49.302Z,7.85
2022-09-11T06:56:18.002Z,7.85
2022-09-11T06:58:46.065Z,8.07
2022-09-11T07:01:16.003Z,8.23
2022-09-11T07:03:45.336Z,8.02
2022-09-11T07:06:18.063Z,8.02
2022-09-11T07:08:52.870Z,7.70
2022-09-11T07:11:20.374Z,7.32
2022-09-11T07:13:47.568Z,7.18
2022-09-11T07:16:16.587Z,6.07
2022-09-11T07:18:45.772Z,7.28
2022-09-11T07:21:21.332Z,7.07
2022-09-11T07:23:51.304Z,7.13
2022-09-11T07:26:18.948Z,7.13
2022-09-11T07:28:48.756Z,6.90
2022-09-11T07:31:21.806Z,6.80
2022-09-11T07:33:50.444Z,6.15
2022-09-11T07:36:23.683Z,6.70
2022-09-11T07:38:51.550Z,5.88
2022-09-11T07:41:21.795Z,6.10
2022-09-11T07:43:56.911Z,5.20
2022-09-11T07:46:27.102Z,4.97
2022-09-11T07:48:55.815Z,5.47
2022-09-11T07:51:23.017Z,5.45
2022-09-11T07:53:54.580Z,5.87
2022-09-11T07:56:24.450Z,6.00
2022-09-11T07:58:53.766Z,7.82
2022-09-11T08:01:27.177Z,5.90
2022-09-11T08:04:02.856Z,4.80
2022-09-11T08:06:35.084Z,4.68
2022-09-11T08:09:08.659Z,5.38
2022-09-11T08:11:43.550Z,4.93
2022-09-11T08:14:13.831Z,5.50
2022-09-11T08:16:41.539Z,5.15
2022-09-11T08:19:10.721Z,5.38
2022-09-11T08:21:37.533Z,4.68
2022-09-11T08:24:04.869Z,4.45
2022-09-11T08:26:31.780Z,4.13
2022-09-11T08:29:00.147Z,4.67
2022-09-11T08:31:28.002Z,5.22
2022-09-11T08:33:56.287Z,4.40
2022-09-11T08:36:23.549Z,4.30
2022-09-11T08:38:51.918Z,3.78
2022-09-11T08:41:33.816Z,4.72
2022-09-11T08:44:09.645Z,5.07
2022-09-11T08:46:43.284Z,5.95
2022-09-11T08:49:24.569Z,5.05
2022-09-11T08:51:54.313Z,5.53
2022-09-11T08:54:33.665Z,4.80
2022-09-11T08:57:54.621Z,4.72
2022-09-11T09:01:14.057Z,4.38
2022-09-11T09:04:02.086Z,4.40
2022-09-11T09:06:54.291Z,4.07
2022-09-11T09:09:21.235Z,3.80
2022-09-11T09:12:18.217Z,4.95
2022-09-11T09:14:58.264Z,5.70
2022-09-11T09:17:53.693Z,5.38
2022-09-11T09:20:26.826Z,4.93
2022-09-11T09:23:07.222Z,5.00
2022-09-11T09:25:38.258Z,4.22
2022-09-11T09:28:29.423Z,3.97
2022-09-11T09:30:58.608Z,3.55
2022-09-11T09:33:36.784Z,3.70
2022-09-11T09:36:17.583Z,3.75
2022-09-11T09:38:45.337Z,3.28
2022-09-11T09:41:49.678Z,3.03
2022-09-11T09:44:53.566Z,3.13
2022-09-11T09:47:20.548Z,2.80
2022-09-11T09:49:47.462Z,2.75
2022-09-11T09:52:27.132Z,2.55
2022-09-11T09:55:05.238Z,2.70
2022-09-11T09:57:37.384Z,2.40
2022-09-11T10:00:10.983Z,2.50
2022-09-11T10:02:56.856Z,2.95
2022-09-11T10:05:31.355Z,2.67
2022-09-11T10:08:09.132Z,2.70
2022-09-11T10:10:38.163Z,2.78
2022-09-11T10:13:22.357Z,2.22
2022-09-11T10:15:51.347Z,2.20
2022-09-11T10:18:42.905Z,2.22
2022-09-11T10:21:15.787Z,2.35
2022-09-11T10:23:54.737Z,2.50
2022-09-11T10:26:50.823Z,2.30
2022-09-11T10:29:30.219Z,2.00
2022-09-11T10:32:05.791Z,2.10
